sensor_id;sensor_type;location;lat;lon;timestamp;pressure;altitude;pressure_sealevel;temperature;humidity
6532;BME280;3299;42.004;24.868;2023-06-24T00:01:25;98214.75;;;23.76;93.51
6532;BME280;3299;42.004;24.868;2023-06-24T00:03:50;98186.03;;;23.39;96.28
6532;BME280;3299;42.004;24.868;2023-06-24T00:06:21;98207.66;;;23.28;99.73
6532;BME280;3299;42.004;24.868;2023-06-24T00:08:48;98185.84;;;23.20;99.53
6532;BME280;3299;42.004;24.868;2023-06-24T00:11:14;98215.44;;;23.15;100.00
6532;BME280;3299;42.004;24.868;2023-06-24T00:13:41;98218.13;;;23.01;100.00
6532;BME280;3299;42.004;24.868;2023-06-24T00:16:06;98229.94;;;23.05;100.00
6532;BME280;3299;42.004;24.868;2023-06-24T00:18:33;98222.81;;;23.20;100.00
6532;BME280;3299;42.004;24.868;2023-06-24T00:20:58;98209.63;;;23.20;100.00
6532;BME280;3299;42.004;24.868;2023-06-24T00:23:24;98212.97;;;23.14;100.00
6532;BME280;3299;42.004;24.868;2023-06-24T00:25:53;98208.44;;;23.08;100.00
6532;BME280;3299;42.004;24.868;2023-06-24T00:28:19;98208.81;;;23.05;100.00
6532;BME280;3299;42.004;24.868;2023-06-24T00:30:45;98207.94;;;22.98;100.00
6532;BME280;3299;42.004;24.868;2023-06-24T00:33:10;98176.59;;;22.88;100.00
6532;BME280;3299;42.004;24.868;2023-06-24T00:35:38;98199.94;;;22.91;100.00
6532;BME280;3299;42.004;24.868;2023-06-24T00:38:04;98171.03;;;22.83;100.00
6532;BME280;3299;42.004;24.868;2023-06-24T00:40:29;98200.47;;;23.01;100.00
6532;BME280;3299;42.004;24.868;2023-06-24T00:42:55;98196.25;;;23.07;100.00
6532;BME280;3299;42.004;24.868;2023-06-24T00:45:22;98176.88;;;23.00;100.00
6532;BME280;3299;42.004;24.868;2023-06-24T00:47:47;98199.13;;;23.12;98.98
6532;BME280;3299;42.004;24.868;2023-06-24T00:50:15;98177.78;;;23.07;98.94
6532;BME280;3299;42.004;24.868;2023-06-24T00:52:41;98176.13;;;23.06;100.00
6532;BME280;3299;42.004;24.868;2023-06-24T00:55:11;98165.59;;;22.85;100.00
6532;BME280;3299;42.004;24.868;2023-06-24T00:57:39;98175.91;;;23.01;100.00
6532;BME280;3299;42.004;24.868;2023-06-24T01:00:05;98148.88;;;22.99;100.00
6532;BME280;3299;42.004;24.868;2023-06-24T01:02:38;98152.59;;;23.04;100.00
6532;BME280;3299;42.004;24.868;2023-06-24T01:05:04;98145.34;;;23.13;100.00
6532;BME280;3299;42.004;24.868;2023-06-24T01:07:31;98163.44;;;23.16;100.00
6532;BME280;3299;42.004;24.868;2023-06-24T01:09:57;98164.72;;;23.20;100.00
6532;BME280;3299;42.004;24.868;2023-06-24T01:12:23;98164.78;;;23.26;100.00
6532;BME280;3299;42.004;24.868;2023-06-24T01:14:48;98176.56;;;23.24;100.00
6532;BME280;3299;42.004;24.868;2023-06-24T01:17:16;98165.47;;;23.14;100.00
6532;BME280;3299;42.004;24.868;2023-06-24T01:25:13;98193.13;;;23.18;100.00
6532;BME280;3299;42.004;24.868;2023-06-24T01:28:07;98173.06;;;23.02;100.00
6532;BME280;3299;42.004;24.868;2023-06-24T01:33:34;98183.63;;;23.02;100.00
6532;BME280;3299;42.004;24.868;2023-06-24T01:38:36;98160.97;;;22.72;100.00
6532;BME280;3299;42.004;24.868;2023-06-24T01:41:03;98176.31;;;22.83;100.00
6532;BME280;3299;42.004;24.868;2023-06-24T01:43:31;98171.91;;;22.69;100.00
6532;BME280;3299;42.004;24.868;2023-06-24T01:45:57;98169.50;;;22.89;100.00
6532;BME280;3299;42.004;24.868;2023-06-24T01:48:27;98150.31;;;22.80;100.00
6532;BME280;3299;42.004;24.868;2023-06-24T01:51:13;98167.97;;;22.80;100.00
6532;BME280;3299;42.004;24.868;2023-06-24T01:53:42;98142.25;;;22.67;100.00
6532;BME280;3299;42.004;24.868;2023-06-24T01:56:12;98160.66;;;22.82;100.00
6532;BME280;3299;42.004;24.868;2023-06-24T01:58:40;98171.19;;;22.75;100.00
6532;BME280;3299;42.004;24.868;2023-06-24T02:01:07;98171.34;;;22.74;100.00
6532;BME280;3299;42.004;24.868;2023-06-24T02:03:33;98165.72;;;22.62;100.00
6532;BME280;3299;42.004;24.868;2023-06-24T02:06:00;98145.06;;;22.30;100.00
6532;BME280;3299;42.004;24.868;2023-06-24T02:08:30;98163.41;;;22.38;100.00
6532;BME280;3299;42.004;24.868;2023-06-24T02:10:58;98182.16;;;22.43;100.00
6532;BME280;3299;42.004;24.868;2023-06-24T02:13:25;98190.22;;;22.42;100.00
6532;BME280;3299;42.004;24.868;2023-06-24T02:15:51;98186.41;;;22.44;100.00
6532;BME280;3299;42.004;24.868;2023-06-24T02:18:18;98175.34;;;22.20;100.00
6532;BME280;3299;42.004;24.868;2023-06-24T02:20:48;98199.78;;;22.28;100.00
6532;BME280;3299;42.004;24.868;2023-06-24T02:23:14;98183.88;;;22.07;100.00
6532;BME280;3299;42.004;24.868;2023-06-24T02:25:41;98181.88;;;21.95;100.00
6532;BME280;3299;42.004;24.868;2023-06-24T02:28:08;98195.88;;;22.10;100.00
6532;BME280;3299;42.004;24.868;2023-06-24T02:30:35;98186.88;;;21.75;100.00
6532;BME280;3299;42.004;24.868;2023-06-24T02:33:01;98209.88;;;21.96;100.00
6532;BME280;3299;42.004;24.868;2023-06-24T02:35:27;98199.84;;;21.77;100.00
6532;BME280;3299;42.004;24.868;2023-06-24T02:37:52;98228.41;;;21.88;100.00
6532;BME280;3299;42.004;24.868;2023-06-24T02:40:18;98230.47;;;21.92;100.00
6532;BME280;3299;42.004;24.868;2023-06-24T02:42:43;98207.31;;;21.88;100.00
6532;BME280;3299;42.004;24.868;2023-06-24T02:45:09;98211.09;;;21.71;100.00
6532;BME280;3299;42.004;24.868;2023-06-24T02:47:35;98219.13;;;21.77;100.00
6532;BME280;3299;42.004;24.868;2023-06-24T02:50:03;98206.69;;;21.71;100.00
6532;BME280;3299;42.004;24.868;2023-06-24T02:52:30;98239.38;;;21.91;100.00
6532;BME280;3299;42.004;24.868;2023-06-24T02:54:57;98241.03;;;21.92;100.00
6532;BME280;3299;42.004;24.868;2023-06-24T02:57:23;98238.38;;;21.78;100.00
6532;BME280;3299;42.004;24.868;2023-06-24T02:59:50;98215.59;;;21.62;100.00
6532;BME280;3299;42.004;24.868;2023-06-24T03:02:16;98241.13;;;21.84;100.00
6532;BME280;3299;42.004;24.868;2023-06-24T03:04:42;98235.50;;;21.87;100.00
6532;BME280;3299;42.004;24.868;2023-06-24T03:07:07;98233.06;;;22.00;100.00
6532;BME280;3299;42.004;24.868;2023-06-24T03:09:36;98234.53;;;22.17;100.00
6532;BME280;3299;42.004;24.868;2023-06-24T03:12:02;98241.16;;;22.28;100.00
6532;BME280;3299;42.004;24.868;2023-06-24T03:14:28;98242.03;;;22.35;100.00
6532;BME280;3299;42.004;24.868;2023-06-24T03:16:53;98252.34;;;22.44;100.00
6532;BME280;3299;42.004;24.868;2023-06-24T03:19:19;98226.41;;;22.19;100.00
6532;BME280;3299;42.004;24.868;2023-06-24T03:21:44;98250.06;;;22.27;100.00
6532;BME280;3299;42.004;24.868;2023-06-24T03:24:10;98254.94;;;22.30;100.00
6532;BME280;3299;42.004;24.868;2023-06-24T03:26:37;98251.22;;;22.39;100.00
6532;BME280;3299;42.004;24.868;2023-06-24T03:29:03;98234.06;;;22.43;100.00
6532;BME280;3299;42.004;24.868;2023-06-24T03:31:29;98249.59;;;22.38;100.00
6532;BME280;3299;42.004;24.868;2023-06-24T03:33:55;98247.72;;;22.46;100.00
6532;BME280;3299;42.004;24.868;2023-06-24T03:36:21;98238.69;;;22.55;100.00
6532;BME280;3299;42.004;24.868;2023-06-24T03:38:46;98223.44;;;22.51;100.00
6532;BME280;3299;42.004;24.868;2023-06-24T03:41:12;98255.22;;;22.64;100.00
6532;BME280;3299;42.004;24.868;2023-06-24T03:43:37;98247.88;;;22.59;100.00
6532;BME280;3299;42.004;24.868;2023-06-24T03:46:03;98253.31;;;22.72;100.00
6532;BME280;3299;42.004;24.868;2023-06-24T03:48:28;98261.19;;;22.87;100.00
6532;BME280;3299;42.004;24.868;2023-06-24T03:50:54;98236.38;;;22.81;100.00
6532;BME280;3299;42.004;24.868;2023-06-24T03:53:19;98247.34;;;22.99;100.00
6532;BME280;3299;42.004;24.868;2023-06-24T03:55:44;98270.16;;;23.21;100.00
6532;BME280;3299;42.004;24.868;2023-06-24T03:58:10;98259.78;;;23.20;100.00
6532;BME280;3299;42.004;24.868;2023-06-24T04:00:35;98249.09;;;23.28;98.51
6532;BME280;3299;42.004;24.868;2023-06-24T04:03:06;98239.09;;;23.23;99.03
6532;BME280;3299;42.004;24.868;2023-06-24T04:05:33;98241.25;;;23.34;97.48
6532;BME280;3299;42.004;24.868;2023-06-24T04:07:58;98235.50;;;23.31;96.04
6532;BME280;3299;42.004;24.868;2023-06-24T04:10:24;98245.94;;;23.39;95.09
6532;BME280;3299;42.004;24.868;2023-06-24T04:12:49;98249.88;;;23.49;93.66
6532;BME280;3299;42.004;24.868;2023-06-24T04:15:15;98233.16;;;23.42;94.14
6532;BME280;3299;42.004;24.868;2023-06-24T04:17:40;98231.03;;;23.31;94.44
6532;BME280;3299;42.004;24.868;2023-06-24T04:20:06;98229.47;;;23.37;94.40
6532;BME280;3299;42.004;24.868;2023-06-24T04:22:38;98216.47;;;23.35;94.12
6532;BME280;3299;42.004;24.868;2023-06-24T04:25:08;98222.44;;;23.44;93.93
6532;BME280;3299;42.004;24.868;2023-06-24T04:27:34;98247.75;;;23.59;94.09
6532;BME280;3299;42.004;24.868;2023-06-24T04:30:00;98224.81;;;23.60;95.30
6532;BME280;3299;42.004;24.868;2023-06-24T04:32:26;98259.63;;;23.91;94.68
6532;BME280;3299;42.004;24.868;2023-06-24T04:34:51;98266.97;;;23.95;94.37
6532;BME280;3299;42.004;24.868;2023-06-24T04:37:16;98266.00;;;24.02;92.83
6532;BME280;3299;42.004;24.868;2023-06-24T04:39:43;98256.03;;;23.98;91.81
6532;BME280;3299;42.004;24.868;2023-06-24T04:42:09;98263.78;;;24.00;91.49
6532;BME280;3299;42.004;24.868;2023-06-24T04:44:36;98284.00;;;24.13;91.15
6532;BME280;3299;42.004;24.868;2023-06-24T04:47:02;98264.63;;;24.07;89.39
6532;BME280;3299;42.004;24.868;2023-06-24T04:49:27;98285.88;;;24.19;88.53
6532;BME280;3299;42.004;24.868;2023-06-24T04:51:53;98295.00;;;24.17;89.15
6532;BME280;3299;42.004;24.868;2023-06-24T04:54:18;98288.25;;;24.14;89.93
6532;BME280;3299;42.004;24.868;2023-06-24T04:56:44;98284.59;;;24.15;89.97
6532;BME280;3299;42.004;24.868;2023-06-24T04:59:10;98296.69;;;24.24;88.44
6532;BME280;3299;42.004;24.868;2023-06-24T05:01:36;98296.94;;;24.36;87.36
6532;BME280;3299;42.004;24.868;2023-06-24T05:04:01;98311.25;;;24.41;86.60
6532;BME280;3299;42.004;24.868;2023-06-24T05:06:27;98320.22;;;24.47;86.95
6532;BME280;3299;42.004;24.868;2023-06-24T05:08:52;98320.22;;;24.47;87.58
6532;BME280;3299;42.004;24.868;2023-06-24T05:11:18;98303.91;;;24.43;87.20
6532;BME280;3299;42.004;24.868;2023-06-24T05:13:43;98294.59;;;24.54;86.49
6532;BME280;3299;42.004;24.868;2023-06-24T05:16:08;98319.59;;;24.72;86.33
6532;BME280;3299;42.004;24.868;2023-06-24T05:18:34;98310.56;;;24.60;86.20
6532;BME280;3299;42.004;24.868;2023-06-24T05:20:59;98299.72;;;24.55;86.46
6532;BME280;3299;42.004;24.868;2023-06-24T05:23:25;98317.34;;;24.69;86.80
6532;BME280;3299;42.004;24.868;2023-06-24T05:25:50;98317.22;;;24.56;86.38
6532;BME280;3299;42.004;24.868;2023-06-24T05:28:15;98322.59;;;24.35;88.71
6532;BME280;3299;42.004;24.868;2023-06-24T05:30:41;98292.41;;;24.23;89.40
6532;BME280;3299;42.004;24.868;2023-06-24T05:33:06;98301.97;;;24.24;89.18
6532;BME280;3299;42.004;24.868;2023-06-24T05:35:33;98311.00;;;24.36;88.99
6532;BME280;3299;42.004;24.868;2023-06-24T05:37:58;98321.91;;;24.54;88.84
6532;BME280;3299;42.004;24.868;2023-06-24T05:40:23;98309.69;;;24.53;87.53
6532;BME280;3299;42.004;24.868;2023-06-24T05:42:49;98307.22;;;24.52;88.01
6532;BME280;3299;42.004;24.868;2023-06-24T05:45:14;98331.00;;;24.79;88.01
6532;BME280;3299;42.004;24.868;2023-06-24T05:47:41;98315.31;;;24.71;87.56
6532;BME280;3299;42.004;24.868;2023-06-24T05:50:07;98312.84;;;24.70;88.93
6532;BME280;3299;42.004;24.868;2023-06-24T05:52:32;98306.97;;;24.74;88.02
6532;BME280;3299;42.004;24.868;2023-06-24T05:54:58;98309.47;;;24.82;86.35
6532;BME280;3299;42.004;24.868;2023-06-24T05:57:23;98308.66;;;24.88;87.08
6532;BME280;3299;42.004;24.868;2023-06-24T05:59:48;98340.94;;;25.11;86.00
6532;BME280;3299;42.004;24.868;2023-06-24T06:02:14;98337.50;;;25.17;85.40
6532;BME280;3299;42.004;24.868;2023-06-24T06:04:47;98332.06;;;25.25;85.26
6532;BME280;3299;42.004;24.868;2023-06-24T06:07:12;98334.53;;;25.40;84.22
6532;BME280;3299;42.004;24.868;2023-06-24T06:09:38;98327.81;;;25.37;83.93
6532;BME280;3299;42.004;24.868;2023-06-24T06:12:03;98337.44;;;25.51;84.11
6532;BME280;3299;42.004;24.868;2023-06-24T06:14:29;98349.28;;;25.62;83.03
6532;BME280;3299;42.004;24.868;2023-06-24T06:16:54;98342.56;;;25.66;82.67
6532;BME280;3299;42.004;24.868;2023-06-24T06:19:20;98322.75;;;25.55;82.93
6532;BME280;3299;42.004;24.868;2023-06-24T06:21:45;98306.03;;;25.61;82.61
6532;BME280;3299;42.004;24.868;2023-06-24T06:24:11;98328.91;;;25.75;82.36
6532;BME280;3299;42.004;24.868;2023-06-24T06:26:44;98347.91;;;25.85;81.41
6532;BME280;3299;42.004;24.868;2023-06-24T06:29:10;98323.19;;;25.78;81.84
6532;BME280;3299;42.004;24.868;2023-06-24T06:31:35;98334.06;;;25.90;82.34
6532;BME280;3299;42.004;24.868;2023-06-24T06:34:01;98329.56;;;25.97;81.83
6532;BME280;3299;42.004;24.868;2023-06-24T06:36:27;98331.59;;;26.01;81.45
6532;BME280;3299;42.004;24.868;2023-06-24T06:38:52;98325.28;;;25.96;81.30
6532;BME280;3299;42.004;24.868;2023-06-24T06:41:18;98323.06;;;26.06;81.78
6532;BME280;3299;42.004;24.868;2023-06-24T06:43:49;98310.59;;;26.06;81.32
6532;BME280;3299;42.004;24.868;2023-06-24T06:46:15;98316.09;;;26.11;81.20
6532;BME280;3299;42.004;24.868;2023-06-24T06:48:40;98306.91;;;26.07;82.25
6532;BME280;3299;42.004;24.868;2023-06-24T06:51:05;98297.94;;;26.08;81.17
6532;BME280;3299;42.004;24.868;2023-06-24T06:53:31;98299.97;;;26.26;80.64
6532;BME280;3299;42.004;24.868;2023-06-24T06:55:56;98315.44;;;26.35;80.80
6532;BME280;3299;42.004;24.868;2023-06-24T06:58:23;98293.00;;;26.31;80.94
6532;BME280;3299;42.004;24.868;2023-06-24T07:00:49;98302.38;;;26.34;81.19
6532;BME280;3299;42.004;24.868;2023-06-24T07:03:15;98295.84;;;26.36;80.63
6532;BME280;3299;42.004;24.868;2023-06-24T07:05:41;98309.13;;;26.49;80.70
6532;BME280;3299;42.004;24.868;2023-06-24T07:08:06;98299.94;;;26.45;80.57
6532;BME280;3299;42.004;24.868;2023-06-24T07:10:32;98313.59;;;26.68;80.44
6532;BME280;3299;42.004;24.868;2023-06-24T07:12:57;98301.94;;;26.69;80.08
6532;BME280;3299;42.004;24.868;2023-06-24T07:15:24;98290.28;;;26.70;80.34
6532;BME280;3299;42.004;24.868;2023-06-24T07:17:49;98320.66;;;26.94;79.56
6532;BME280;3299;42.004;24.868;2023-06-24T07:20:15;98318.38;;;26.97;78.77
6532;BME280;3299;42.004;24.868;2023-06-24T07:22:40;98312.44;;;27.02;79.10
6532;BME280;3299;42.004;24.868;2023-06-24T07:25:06;98295.06;;;26.99;78.84
6532;BME280;3299;42.004;24.868;2023-06-24T07:27:31;98308.72;;;27.16;77.31
6532;BME280;3299;42.004;24.868;2023-06-24T07:29:57;98294.22;;;27.12;77.19
6532;BME280;3299;42.004;24.868;2023-06-24T07:32:22;98283.78;;;27.10;77.10
6532;BME280;3299;42.004;24.868;2023-06-24T07:34:48;98284.19;;;27.14;77.33
6532;BME280;3299;42.004;24.868;2023-06-24T07:37:13;98306.97;;;27.34;76.62
6532;BME280;3299;42.004;24.868;2023-06-24T07:39:38;98308.66;;;27.29;77.65
6532;BME280;3299;42.004;24.868;2023-06-24T07:42:04;98310.16;;;27.12;76.99
6532;BME280;3299;42.004;24.868;2023-06-24T07:44:29;98301.63;;;26.97;78.22
6532;BME280;3299;42.004;24.868;2023-06-24T07:46:55;98284.06;;;26.96;78.71
6532;BME280;3299;42.004;24.868;2023-06-24T07:49:20;98297.25;;;27.15;79.22
6532;BME280;3299;42.004;24.868;2023-06-24T07:51:46;98281.38;;;27.02;77.96
6532;BME280;3299;42.004;24.868;2023-06-24T07:54:11;98307.47;;;27.18;77.93
6532;BME280;3299;42.004;24.868;2023-06-24T07:56:37;98308.28;;;27.12;78.41
6532;BME280;3299;42.004;24.868;2023-06-24T07:59:02;98307.06;;;27.15;78.39
6532;BME280;3299;42.004;24.868;2023-06-24T08:01:28;98297.31;;;27.02;78.61
6532;BME280;3299;42.004;24.868;2023-06-24T08:03:53;98293.66;;;26.97;79.43
6532;BME280;3299;42.004;24.868;2023-06-24T08:06:19;98301.38;;;27.18;79.46
6532;BME280;3299;42.004;24.868;2023-06-24T08:08:45;98289.91;;;27.17;78.92
6532;BME280;3299;42.004;24.868;2023-06-24T08:11:12;98301.84;;;27.39;78.68
6532;BME280;3299;42.004;24.868;2023-06-24T08:13:38;98316.06;;;27.58;77.66
6532;BME280;3299;42.004;24.868;2023-06-24T08:16:03;98309.31;;;27.55;76.74
6532;BME280;3299;42.004;24.868;2023-06-24T08:18:29;98289.88;;;27.55;76.34
6532;BME280;3299;42.004;24.868;2023-06-24T08:20:54;98305.31;;;27.71;75.40
6532;BME280;3299;42.004;24.868;2023-06-24T08:23:20;98321.75;;;27.92;75.47
6532;BME280;3299;42.004;24.868;2023-06-24T08:25:45;98296.63;;;27.88;74.35
6532;BME280;3299;42.004;24.868;2023-06-24T08:28:11;98318.97;;;28.05;73.30
6532;BME280;3299;42.004;24.868;2023-06-24T08:30:36;98289.59;;;28.00;73.20
6532;BME280;3299;42.004;24.868;2023-06-24T08:33:01;98290.09;;;28.09;72.92
6532;BME280;3299;42.004;24.868;2023-06-24T08:35:27;98316.97;;;28.25;72.09
6532;BME280;3299;42.004;24.868;2023-06-24T08:37:52;98309.16;;;28.30;72.23
6532;BME280;3299;42.004;24.868;2023-06-24T08:40:18;98314.38;;;28.43;71.30
6532;BME280;3299;42.004;24.868;2023-06-24T08:42:43;98287.88;;;28.30;71.11
6532;BME280;3299;42.004;24.868;2023-06-24T08:45:09;98314.53;;;28.24;71.55
6532;BME280;3299;42.004;24.868;2023-06-24T08:47:35;98308.63;;;28.22;72.12
6532;BME280;3299;42.004;24.868;2023-06-24T08:50:13;98290.50;;;28.12;71.71
6532;BME280;3299;42.004;24.868;2023-06-24T08:52:42;98310.31;;;28.41;71.73
6532;BME280;3299;42.004;24.868;2023-06-24T08:55:13;98295.59;;;28.38;71.94
6532;BME280;3299;42.004;24.868;2023-06-24T08:57:39;98308.72;;;28.33;70.48
6532;BME280;3299;42.004;24.868;2023-06-24T09:00:06;98317.16;;;28.30;71.61
6532;BME280;3299;42.004;24.868;2023-06-24T09:02:35;98320.97;;;28.34;71.78
6532;BME280;3299;42.004;24.868;2023-06-24T09:05:06;98307.78;;;28.21;70.92
6532;BME280;3299;42.004;24.868;2023-06-24T09:07:32;98316.88;;;28.38;70.77
6532;BME280;3299;42.004;24.868;2023-06-24T09:09:58;98298.84;;;28.40;70.58
6532;BME280;3299;42.004;24.868;2023-06-24T09:12:25;98322.53;;;28.66;70.57
6532;BME280;3299;42.004;24.868;2023-06-24T09:14:52;98323.56;;;28.83;69.42
6532;BME280;3299;42.004;24.868;2023-06-24T09:17:18;98322.22;;;28.92;67.75
6532;BME280;3299;42.004;24.868;2023-06-24T09:19:47;98319.06;;;29.02;66.82
6532;BME280;3299;42.004;24.868;2023-06-24T09:22:12;98301.91;;;28.98;67.22
6532;BME280;3299;42.004;24.868;2023-06-24T09:24:43;98290.38;;;29.04;65.85
6532;BME280;3299;42.004;24.868;2023-06-24T09:27:15;98314.66;;;29.25;65.59
6532;BME280;3299;42.004;24.868;2023-06-24T09:29:42;98292.41;;;29.02;66.06
6532;BME280;3299;42.004;24.868;2023-06-24T09:32:08;98304.63;;;29.09;66.77
6532;BME280;3299;42.004;24.868;2023-06-24T09:34:35;98288.50;;;29.04;65.77
6532;BME280;3299;42.004;24.868;2023-06-24T09:37:01;98304.84;;;29.26;64.58
6532;BME280;3299;42.004;24.868;2023-06-24T09:39:28;98300.31;;;29.26;65.31
6532;BME280;3299;42.004;24.868;2023-06-24T09:41:56;98297.44;;;29.39;63.52
6532;BME280;3299;42.004;24.868;2023-06-24T09:44:22;98273.84;;;29.43;63.79
6532;BME280;3299;42.004;24.868;2023-06-24T09:46:47;98294.88;;;29.62;63.38
6532;BME280;3299;42.004;24.868;2023-06-24T09:49:13;98265.31;;;29.64;63.49
6532;BME280;3299;42.004;24.868;2023-06-24T09:51:45;98272.78;;;29.85;61.93
6532;BME280;3299;42.004;24.868;2023-06-24T09:54:13;98265.38;;;29.98;60.70
6532;BME280;3299;42.004;24.868;2023-06-24T09:56:48;98254.78;;;29.80;63.81
6532;BME280;3299;42.004;24.868;2023-06-24T09:59:15;98251.19;;;29.86;62.17
6532;BME280;3299;42.004;24.868;2023-06-24T10:01:44;98234.34;;;29.74;63.33
6532;BME280;3299;42.004;24.868;2023-06-24T10:04:15;98227.16;;;29.86;63.30
6532;BME280;3299;42.004;24.868;2023-06-24T10:06:41;98239.38;;;30.05;62.93
6532;BME280;3299;42.004;24.868;2023-06-24T10:09:06;98250.53;;;30.25;63.26
6532;BME280;3299;42.004;24.868;2023-06-24T10:11:32;98249.03;;;30.29;61.97
6532;BME280;3299;42.004;24.868;2023-06-24T10:13:57;98216.06;;;30.35;62.84
6532;BME280;3299;42.004;24.868;2023-06-24T10:16:23;98238.53;;;30.51;62.66
6532;BME280;3299;42.004;24.868;2023-06-24T10:18:48;98215.34;;;30.40;61.31
6532;BME280;3299;42.004;24.868;2023-06-24T10:21:15;98234.13;;;30.56;61.39
6532;BME280;3299;42.004;24.868;2023-06-24T10:23:43;98229.47;;;30.63;62.58
6532;BME280;3299;42.004;24.868;2023-06-24T10:37:08;98208.09;;;30.63;60.70
6532;BME280;3299;42.004;24.868;2023-06-24T10:39:40;98221.50;;;30.91;59.90
6532;BME280;3299;42.004;24.868;2023-06-24T10:42:42;98212.25;;;31.10;60.13
6532;BME280;3299;42.004;24.868;2023-06-24T10:47:38;98214.31;;;31.36;58.99
6532;BME280;3299;42.004;24.868;2023-06-24T10:50:08;98196.84;;;31.62;58.05
6532;BME280;3299;42.004;24.868;2023-06-24T10:52:41;98184.75;;;31.59;57.98
6532;BME280;3299;42.004;24.868;2023-06-24T10:55:07;98198.31;;;32.02;56.72
6532;BME280;3299;42.004;24.868;2023-06-24T10:57:33;98176.28;;;32.17;54.84
6532;BME280;3299;42.004;24.868;2023-06-24T10:59:58;98168.03;;;32.23;55.20
6532;BME280;3299;42.004;24.868;2023-06-24T11:02:26;98197.00;;;32.43;55.53
6532;BME280;3299;42.004;24.868;2023-06-24T11:04:59;98182.09;;;32.30;54.01
6532;BME280;3299;42.004;24.868;2023-06-24T11:07:30;98163.06;;;32.10;54.97
6532;BME280;3299;42.004;24.868;2023-06-24T11:10:00;98166.59;;;32.32;54.66
6532;BME280;3299;42.004;24.868;2023-06-24T11:12:34;98171.09;;;32.48;53.07
6532;BME280;3299;42.004;24.868;2023-06-24T11:15:04;98162.91;;;32.60;53.50
6532;BME280;3299;42.004;24.868;2023-06-24T11:17:31;98150.03;;;32.78;52.58
6532;BME280;3299;42.004;24.868;2023-06-24T11:19:58;98154.97;;;32.91;52.31
6532;BME280;3299;42.004;24.868;2023-06-24T11:22:24;98134.00;;;32.83;50.42
6532;BME280;3299;42.004;24.868;2023-06-24T11:24:50;98154.25;;;33.27;49.71
6532;BME280;3299;42.004;24.868;2023-06-24T11:27:16;98123.84;;;33.48;50.23
6532;BME280;3299;42.004;24.868;2023-06-24T11:29:41;98133.69;;;33.74;50.06
6532;BME280;3299;42.004;24.868;2023-06-24T11:32:08;98135.53;;;33.69;48.41
6532;BME280;3299;42.004;24.868;2023-06-24T11:34:35;98140.47;;;33.82;47.23
6532;BME280;3299;42.004;24.868;2023-06-24T11:37:15;98114.28;;;33.62;48.13
6532;BME280;3299;42.004;24.868;2023-06-24T11:39:43;98114.19;;;33.52;47.48
6532;BME280;3299;42.004;24.868;2023-06-24T11:42:09;98131.63;;;33.86;48.43
6532;BME280;3299;42.004;24.868;2023-06-24T11:44:34;98111.63;;;33.67;48.31
6532;BME280;3299;42.004;24.868;2023-06-24T11:47:07;98105.84;;;33.85;47.40
6532;BME280;3299;42.004;24.868;2023-06-24T11:49:48;98095.78;;;34.07;47.57
6532;BME280;3299;42.004;24.868;2023-06-24T11:52:13;98122.38;;;34.14;46.38
6532;BME280;3299;42.004;24.868;2023-06-24T11:54:40;98106.25;;;34.09;46.01
6532;BME280;3299;42.004;24.868;2023-06-24T11:57:07;98118.22;;;34.43;45.51
6532;BME280;3299;42.004;24.868;2023-06-24T11:59:32;98114.78;;;34.62;43.58
6532;BME280;3299;42.004;24.868;2023-06-24T12:01:59;98112.38;;;34.61;42.63
6532;BME280;3299;42.004;24.868;2023-06-24T12:04:29;98111.06;;;34.73;42.81
6532;BME280;3299;42.004;24.868;2023-06-24T12:06:55;98114.88;;;34.82;42.31
6532;BME280;3299;42.004;24.868;2023-06-24T12:09:21;98114.06;;;34.87;42.37
6532;BME280;3299;42.004;24.868;2023-06-24T12:11:46;98091.09;;;34.44;41.88
6532;BME280;3299;42.004;24.868;2023-06-24T12:14:12;98105.75;;;34.88;42.44
6532;BME280;3299;42.004;24.868;2023-06-24T12:16:39;98082.63;;;34.87;42.31
6532;BME280;3299;42.004;24.868;2023-06-24T12:19:05;98074.81;;;34.81;42.27
6532;BME280;3299;42.004;24.868;2023-06-24T12:21:30;98085.31;;;34.87;40.40
6532;BME280;3299;42.004;24.868;2023-06-24T12:23:56;98085.56;;;34.81;39.70
6532;BME280;3299;42.004;24.868;2023-06-24T12:26:21;98090.41;;;34.94;40.03
6532;BME280;3299;42.004;24.868;2023-06-24T12:28:46;98088.53;;;34.89;40.07
6532;BME280;3299;42.004;24.868;2023-06-24T12:31:12;98089.59;;;35.08;39.39
6532;BME280;3299;42.004;24.868;2023-06-24T12:33:37;98087.75;;;35.19;40.76
6532;BME280;3299;42.004;24.868;2023-06-24T12:36:03;98076.16;;;35.13;39.97
6532;BME280;3299;42.004;24.868;2023-06-24T12:38:28;98049.25;;;34.98;39.07
6532;BME280;3299;42.004;24.868;2023-06-24T12:40:54;98069.16;;;34.87;39.85
6532;BME280;3299;42.004;24.868;2023-06-24T12:43:19;98038.22;;;34.75;40.27
6532;BME280;3299;42.004;24.868;2023-06-24T12:45:45;98034.72;;;34.89;40.20
6532;BME280;3299;42.004;24.868;2023-06-24T12:48:12;98049.25;;;34.98;40.21
6532;BME280;3299;42.004;24.868;2023-06-24T12:50:38;98046.03;;;35.36;40.77
6532;BME280;3299;42.004;24.868;2023-06-24T12:53:03;98051.63;;;35.70;38.47
6532;BME280;3299;42.004;24.868;2023-06-24T12:55:29;98031.66;;;35.81;36.84
6532;BME280;3299;42.004;24.868;2023-06-24T12:57:55;98027.81;;;36.02;38.27
6532;BME280;3299;42.004;24.868;2023-06-24T13:00:21;98037.47;;;36.08;36.66
6532;BME280;3299;42.004;24.868;2023-06-24T13:02:48;98038.50;;;36.22;37.00
6532;BME280;3299;42.004;24.868;2023-06-24T13:05:13;98045.25;;;36.14;37.30
6532;BME280;3299;42.004;24.868;2023-06-24T13:07:39;98024.72;;;36.33;37.69
6532;BME280;3299;42.004;24.868;2023-06-24T13:10:04;98036.06;;;36.25;36.06
6532;BME280;3299;42.004;24.868;2023-06-24T13:12:32;98022.34;;;36.22;36.64
6532;BME280;3299;42.004;24.868;2023-06-24T13:14:57;98029.13;;;36.09;37.53
6532;BME280;3299;42.004;24.868;2023-06-24T13:17:23;98008.94;;;36.07;35.66
6532;BME280;3299;42.004;24.868;2023-06-24T13:19:51;98003.44;;;36.27;36.27
6532;BME280;3299;42.004;24.868;2023-06-24T13:22:17;98023.03;;;36.42;35.63
6532;BME280;3299;42.004;24.868;2023-06-24T13:24:43;98029.94;;;36.63;34.97
6532;BME280;3299;42.004;24.868;2023-06-24T13:27:10;98030.44;;;36.60;35.05
6532;BME280;3299;42.004;24.868;2023-06-24T13:29:36;98033.28;;;36.40;35.05